Terminal Aerodrome Forecast
Issued by NWS Cleveland, OH

Home | Current Version | Previous Version | Graphics & Text | Print | Product List | Glossary On
Versions: 1 2 3 4 5 6 7 8 9 10 11 12 13 14 15 16 17 18
000
FTUS41 KCLE 180600 AAA
TAFTOL
TAF AMD
KTOL 180600Z 1806/1906 06011G18KT P6SM BKN250
     FM181500 07014G22KT P6SM BKN120
     FM181900 07015G25KT P6SM BKN025
     FM182100 07018G28KT 5SM BR VCSH OVC007
     FM190100 08014G22KT 3SM -RA BR OVC007=

USA.gov is the U.S. government's official web portal to all federal, state and local government web resources and services.